Burlington (BTV/KBTV)

Map

Destinations

Information

Location
Burlington, VT
Local Time
22:27 / 10:27 pm
GMT Time
02:27 / 2:27 am
Gates
Unassigned
No FAA reported delays
METAR KBTV 280154Z 13003KT 8SM FEW009 BKN016 OVC023 03/03 A2995 RMK AO2 RAB0059E09 SLP147 P0000 T00330028
TAF KBTV 280107Z 2801/2824 15005KT P6SM SCT015 BKN025 TEMPO 2801/2804 1 1/2SM -RA BR BKN015 FM280500 17005KT P6SM OVC008 FM281200 16005KT P6SM VCSH OVC008 FM281800 VRB03KT 4SM -SHRA BR OVC010 FM282200 35004KT P6SM VCSH OVC010
  • No charts available